Annalisa P — V2QC8 — position and weather

sailwx.info

Track history (hours):
 
Tides and Currents Weather Stations Pressure Air Temp Water Temp Dewpoint Dewpoint Depression Visibility Wind Speed Wind Dir Waves Ship Positions

Annalisa P

Last reported at 2017-Sep-21 17:09 UTC. Time now 2017-Sep-26 02:09 UTC.
Position N 31°13' E 032°21'.

Length 166 m; draft 8 m.

Type: Cargo ship. MMSI: 305313000.

Date/timePositionNaut miles runAvg speedWind from/ knotsBaromVisibWave heightAir tempDewpointWater temp
2017-Sep-21 17:09N 31°13' E 032°21'0 0.0
2017-Sep-21 16:57N 31°13' E 032°21'0 0.0
2017-Sep-21 16:10N 31°13' E 032°21'0 0.0
2017-Sep-21 16:00N 31°13' E 032°21'1 1.4
2017-Sep-21 15:30N 31°13' E 032°21'4 8.2
2017-Sep-21 15:00N 31°18' E 032°22'510.2
2017-Sep-21 14:30N 31°22' E 032°25'3 1.6
2017-Sep-21 12:30N 31°25' E 032°27'22 5.0
2017-Sep-21 08:10N 31°37' E 032°06'2 9.7
2017-Sep-21 08:00N 31°38' E 032°05'5 9.7
2017-Sep-21 07:29N 31°42' E 032°01'5 9.7
2017-Sep-21 06:57N 31°46' E 031°57'5 9.8
2017-Sep-21 06:25N 31°49' E 031°52'4 9.8
2017-Sep-21 06:00N 31°52' E 031°48'43 9.8
2017-Sep-21 01:37N 32°24' E 031°14'12 9.5
2017-Sep-21 00:20N 32°33' E 031°04'4 9.6
2017-Sep-20 23:56N 32°35' E 031°01'6 9.6
2017-Sep-20 23:16N 32°40' E 030°56'3 9.8
2017-Sep-20 22:59N 32°42' E 030°54'5 9.9
2017-Sep-20 22:30N 32°46' E 030°50'19 9.8
2017-Sep-20 20:34N 32°60' E 030°35'1 9.9
2017-Sep-20 20:30N 33°00' E 030°35'5 9.6
2017-Sep-20 20:00N 33°04' E 030°31'5 9.5
2017-Sep-20 19:30N 33°07' E 030°27'5 9.4
2017-Sep-20 19:01N 33°11' E 030°23'5 9.2
2017-Sep-20 18:30N 33°14' E 030°20'5 9.2
2017-Sep-20 18:00N 33°18' E 030°16'7 9.1
2017-Sep-20 17:13N 33°23' E 030°10'32210.1
2017-Sep-19 09:18N 37°30' E 025°55'3 9.8
2017-Sep-19 09:00N 37°33' E 025°54'510.2
2017-Sep-19 08:30N 37°38' E 025°53'  
2017-Sep-14 16:42N 31°24' E 032°26'0 0.0
2017-Sep-14 16:30N 31°24' E 032°26'0 0.0
2017-Sep-14 14:54N 31°24' E 032°26'0 0.0
2017-Sep-14 14:27N 31°24' E 032°26'0 0.0
2017-Sep-14 13:51N 31°24' E 032°26'0 0.1
2017-Sep-14 13:30N 31°24' E 032°26'0 0.0
2017-Sep-14 12:42N 31°24' E 032°26'0 0.0
2017-Sep-14 12:27N 31°24' E 032°26'0 0.0
2017-Sep-14 12:00N 31°24' E 032°26'0 0.0
2017-Sep-14 11:30N 31°24' E 032°26'0 0.0
2017-Sep-14 10:30N 31°24' E 032°26'0 0.1
2017-Sep-14 10:00N 31°24' E 032°26'3 4.6
2017-Sep-14 09:17N 31°27' E 032°24'19 8.5
2017-Sep-14 07:04N 31°37' E 032°06'1 9.7
2017-Sep-14 07:00N 31°38' E 032°05'16 9.6
2017-Sep-14 05:19N 31°49' E 031°52'11 9.7
2017-Sep-14 04:13N 31°56' E 031°42'2 9.6
2017-Sep-14 03:59N 31°58' E 031°41'7 9.5
2017-Sep-14 03:14N 32°03' E 031°35'2 9.5
2017-Sep-14 03:00N 32°05' E 031°34'5 9.4
2017-Sep-14 02:30N 32°08' E 031°30'5 9.5
2017-Sep-14 01:56N 32°12' E 031°25'4 9.6
2017-Sep-14 01:30N 32°16' E 031°22'25 9.8
2017-Sep-13 22:58N 32°34' E 031°03'5 9.8
2017-Sep-13 22:27N 32°38' E 030°59'4 9.7
2017-Sep-13 22:00N 32°41' E 030°55'5 9.7
2017-Sep-13 21:27N 32°45' E 030°51'23 9.6
2017-Sep-13 19:04N 33°02' E 030°33'1 9.7
2017-Sep-13 18:59N 33°03' E 030°32'5 9.6
2017-Sep-13 18:30N 33°06' E 030°28'23 9.8
2017-Sep-13 16:10N 33°23' E 030°10'2 9.7
2017-Sep-13 15:58N 33°25' E 030°09'8110.4
2017-Sep-13 08:07N 34°25' E 029°03'236 9.6
2017-Sep-12 07:35N 37°26' E 025°55'110.5
2017-Sep-12 07:30N 37°26' E 025°55'510.3
2017-Sep-12 07:00N 37°31' E 025°52'714.7
2017-Sep-12 06:30N 37°38' E 025°49'510.2
2017-Sep-12 06:00N 37°42' E 025°46'5 9.7
2017-Sep-12 05:30N 37°47' E 025°45'  
Track history (hours):
 
Tides and Currents Weather Stations Pressure Air Temp Water Temp Dewpoint Dewpoint Depression Visibility Wind Speed Wind Dir Waves Ship Positions

Annalisa P

Last reported at 2017-Sep-21 17:09 UTC. Time now 2017-Sep-26 02:09 UTC.
Position N 31°13' E 032°21'.

Length 166 m; draft 8 m.

Type: Cargo ship. MMSI: 305313000.

Date/timePositionNaut miles runAvg speedWind from/ knotsBaromVisibWave heightAir tempDewpointWater temp
2017-Sep-21 17:09N 31°13' E 032°21'0 0.0
2017-Sep-21 16:57N 31°13' E 032°21'0 0.0
2017-Sep-21 16:10N 31°13' E 032°21'0 0.0
2017-Sep-21 16:00N 31°13' E 032°21'1 1.4
2017-Sep-21 15:30N 31°13' E 032°21'4 8.2
2017-Sep-21 15:00N 31°18' E 032°22'510.2
2017-Sep-21 14:30N 31°22' E 032°25'3 1.6
2017-Sep-21 12:30N 31°25' E 032°27'22 5.0
2017-Sep-21 08:10N 31°37' E 032°06'2 9.7
2017-Sep-21 08:00N 31°38' E 032°05'5 9.7
2017-Sep-21 07:29N 31°42' E 032°01'5 9.7
2017-Sep-21 06:57N 31°46' E 031°57'5 9.8
2017-Sep-21 06:25N 31°49' E 031°52'4 9.8
2017-Sep-21 06:00N 31°52' E 031°48'43 9.8
2017-Sep-21 01:37N 32°24' E 031°14'12 9.5
2017-Sep-21 00:20N 32°33' E 031°04'4 9.6
2017-Sep-20 23:56N 32°35' E 031°01'6 9.6
2017-Sep-20 23:16N 32°40' E 030°56'3 9.8
2017-Sep-20 22:59N 32°42' E 030°54'5 9.9
2017-Sep-20 22:30N 32°46' E 030°50'19 9.8
2017-Sep-20 20:34N 32°60' E 030°35'1 9.9
2017-Sep-20 20:30N 33°00' E 030°35'5 9.6
2017-Sep-20 20:00N 33°04' E 030°31'5 9.5
2017-Sep-20 19:30N 33°07' E 030°27'5 9.4
2017-Sep-20 19:01N 33°11' E 030°23'5 9.2
2017-Sep-20 18:30N 33°14' E 030°20'5 9.2
2017-Sep-20 18:00N 33°18' E 030°16'7 9.1
2017-Sep-20 17:13N 33°23' E 030°10'32210.1
2017-Sep-19 09:18N 37°30' E 025°55'3 9.8
2017-Sep-19 09:00N 37°33' E 025°54'510.2
2017-Sep-19 08:30N 37°38' E 025°53'  
2017-Sep-14 16:42N 31°24' E 032°26'0 0.0
2017-Sep-14 16:30N 31°24' E 032°26'0 0.0
2017-Sep-14 14:54N 31°24' E 032°26'0 0.0
2017-Sep-14 14:27N 31°24' E 032°26'0 0.0
2017-Sep-14 13:51N 31°24' E 032°26'0 0.1
2017-Sep-14 13:30N 31°24' E 032°26'0 0.0
2017-Sep-14 12:42N 31°24' E 032°26'0 0.0
2017-Sep-14 12:27N 31°24' E 032°26'0 0.0
2017-Sep-14 12:00N 31°24' E 032°26'0 0.0
2017-Sep-14 11:30N 31°24' E 032°26'0 0.0
2017-Sep-14 10:30N 31°24' E 032°26'0 0.1
2017-Sep-14 10:00N 31°24' E 032°26'3 4.6
2017-Sep-14 09:17N 31°27' E 032°24'19 8.5
2017-Sep-14 07:04N 31°37' E 032°06'1 9.7
2017-Sep-14 07:00N 31°38' E 032°05'16 9.6
2017-Sep-14 05:19N 31°49' E 031°52'11 9.7
2017-Sep-14 04:13N 31°56' E 031°42'2 9.6
2017-Sep-14 03:59N 31°58' E 031°41'7 9.5
2017-Sep-14 03:14N 32°03' E 031°35'2 9.5
2017-Sep-14 03:00N 32°05' E 031°34'5 9.4
2017-Sep-14 02:30N 32°08' E 031°30'5 9.5
2017-Sep-14 01:56N 32°12' E 031°25'4 9.6
2017-Sep-14 01:30N 32°16' E 031°22'25 9.8
2017-Sep-13 22:58N 32°34' E 031°03'5 9.8
2017-Sep-13 22:27N 32°38' E 030°59'4 9.7
2017-Sep-13 22:00N 32°41' E 030°55'5 9.7
2017-Sep-13 21:27N 32°45' E 030°51'23 9.6
2017-Sep-13 19:04N 33°02' E 030°33'1 9.7
2017-Sep-13 18:59N 33°03' E 030°32'5 9.6
2017-Sep-13 18:30N 33°06' E 030°28'23 9.8
2017-Sep-13 16:10N 33°23' E 030°10'2 9.7
2017-Sep-13 15:58N 33°25' E 030°09'8110.4
2017-Sep-13 08:07N 34°25' E 029°03'236 9.6
2017-Sep-12 07:35N 37°26' E 025°55'110.5
2017-Sep-12 07:30N 37°26' E 025°55'510.3
2017-Sep-12 07:00N 37°31' E 025°52'714.7
2017-Sep-12 06:30N 37°38' E 025°49'510.2
2017-Sep-12 06:00N 37°42' E 025°46'5 9.7
2017-Sep-12 05:30N 37°47' E 025°45'  

Dump ship's entire track history